createdAt,value
2018-04-27T00:01:42.433Z,6.00
2018-04-27T00:06:25.955Z,6.00
2018-04-27T00:11:09.298Z,6.00
2018-04-27T00:15:52.646Z,6.00
2018-04-27T00:20:35.987Z,5.90
2018-04-27T00:25:19.258Z,5.80
2018-04-27T00:30:02.642Z,6.10
2018-04-27T00:34:45.862Z,6.20
2018-04-27T00:39:29.883Z,6.00
2018-04-27T00:44:13.187Z,5.90
2018-04-27T00:48:56.464Z,5.80
2018-04-27T00:53:39.771Z,5.80
2018-04-27T00:58:23.107Z,5.70
2018-04-27T01:03:07.182Z,5.80
2018-04-27T01:07:50.473Z,5.80
2018-04-27T01:12:34.538Z,5.90
2018-04-27T01:17:17.944Z,5.90
2018-04-27T01:22:01.280Z,6.00
2018-04-27T01:26:44.608Z,6.10
2018-04-27T01:31:27.959Z,6.30
2018-04-27T01:36:11.280Z,6.30
2018-04-27T01:40:54.595Z,6.10
2018-04-27T01:45:37.934Z,6.00
2018-04-27T01:50:21.242Z,5.90
2018-04-27T01:55:04.606Z,5.80
2018-04-27T01:59:48.675Z,5.60
2018-04-27T02:04:32.039Z,5.50
2018-04-27T02:09:15.341Z,5.40
2018-04-27T02:13:58.607Z,5.40
2018-04-27T02:18:41.923Z,5.30
2018-04-27T02:23:25.975Z,5.10
2018-04-27T02:28:10.055Z,5.20
2018-04-27T02:32:53.340Z,5.10
2018-04-27T02:37:36.659Z,5.00
2018-04-27T02:42:20.010Z,4.90
2018-04-27T02:47:03.311Z,4.70
2018-04-27T02:51:46.610Z,4.70
2018-04-27T02:56:29.930Z,4.60
2018-04-27T03:01:13.252Z,4.50
2018-04-27T03:05:56.548Z,4.50
2018-04-27T03:10:39.863Z,4.40
2018-04-27T03:15:23.180Z,4.40
2018-04-27T03:20:06.499Z,4.40
2018-04-27T03:24:49.788Z,4.50
2018-04-27T03:29:33.110Z,4.40
2018-04-27T03:34:16.441Z,4.40
2018-04-27T03:38:59.723Z,4.40
2018-04-27T03:43:43.012Z,4.50
2018-04-27T03:48:26.346Z,4.60
2018-04-27T03:53:09.701Z,4.70
2018-04-27T03:57:52.977Z,4.80
2018-04-27T04:02:48.004Z,4.90
2018-04-27T04:07:32.133Z,5.10
2018-04-27T04:12:16.299Z,5.10
2018-04-27T04:16:59.639Z,5.10
2018-04-27T04:21:42.942Z,5.20
2018-04-27T04:26:26.239Z,5.30
2018-04-27T04:31:09.566Z,5.40
2018-04-27T04:35:52.861Z,5.50
2018-04-27T04:40:36.167Z,5.60
2018-04-27T04:45:20.250Z,5.80
2018-04-27T04:50:03.591Z,5.80
2018-04-27T04:54:46.878Z,5.90
2018-04-27T04:59:30.182Z,6.10
2018-04-27T05:04:13.540Z,6.10
2018-04-27T05:08:56.845Z,6.40
2018-04-27T05:13:40.182Z,6.50
2018-04-27T05:23:50.231Z,6.80
2018-04-27T05:28:34.310Z,7.10
2018-04-27T05:33:18.461Z,7.20
2018-04-27T05:38:01.749Z,7.20
2018-04-27T05:42:45.060Z,7.40
2018-04-27T05:47:28.390Z,7.60
2018-04-27T05:52:12.506Z,8.10
2018-04-27T05:56:55.840Z,8.20
2018-04-27T06:01:39.175Z,8.40
2018-04-27T06:06:22.518Z,8.60
2018-04-27T06:11:05.902Z,8.80
2018-04-27T06:15:49.299Z,9.20
2018-04-27T06:20:32.671Z,9.50
2018-04-27T06:25:15.978Z,9.60
2018-04-27T06:30:08.439Z,9.80
2018-04-27T06:34:51.804Z,10.10
2018-04-27T06:39:35.864Z,10.70
2018-04-27T06:44:19.960Z,10.80
2018-04-27T06:49:03.369Z,10.80
2018-04-27T06:53:47.450Z,11.50
2018-04-27T06:58:30.771Z,11.50
2018-04-27T07:03:14.872Z,12.30
2018-04-27T07:07:58.260Z,12.30
2018-04-27T07:12:41.691Z,12.90
2018-04-27T07:17:25.031Z,13.10
2018-04-27T07:22:08.429Z,13.70
2018-04-27T07:26:51.788Z,14.40
2018-04-27T07:31:35.064Z,15.20
2018-04-27T07:36:18.402Z,15.60
2018-04-27T07:41:01.737Z,15.90
2018-04-27T07:45:45.086Z,15.80
2018-04-27T07:50:28.406Z,16.40
2018-04-27T07:55:11.682Z,16.70
2018-04-27T07:59:55.888Z,16.50
2018-04-27T08:04:39.243Z,16.50
2018-04-27T08:09:23.342Z,16.90
2018-04-27T08:14:06.670Z,16.90
2018-04-27T08:18:50.838Z,17.50
2018-04-27T08:23:34.995Z,17.70
2018-04-27T08:28:18.342Z,17.70
2018-04-27T08:33:02.428Z,18.20
2018-04-27T08:37:45.771Z,18.20
2018-04-27T08:42:29.103Z,18.70
2018-04-27T08:47:12.383Z,18.50
2018-04-27T08:51:55.752Z,18.60
2018-04-27T08:56:39.883Z,19.00
2018-04-27T09:01:23.242Z,19.00
2018-04-27T09:06:06.594Z,19.10
2018-04-27T09:10:49.878Z,19.30
2018-04-27T09:15:33.226Z,19.50
2018-04-27T09:20:16.546Z,19.40
2018-04-27T09:24:59.900Z,19.50
2018-04-27T09:29:43.221Z,19.80
2018-04-27T09:34:27.307Z,20.50
2018-04-27T09:39:10.639Z,20.50
2018-04-27T09:43:54.021Z,20.30
2018-04-27T09:48:38.108Z,20.80
2018-04-27T09:53:21.421Z,20.80
2018-04-27T09:58:04.752Z,21.30
2018-04-27T10:02:48.075Z,21.80
2018-04-27T10:07:31.427Z,21.20
2018-04-27T10:12:15.494Z,21.90
2018-04-27T10:16:59.584Z,22.80
2018-04-27T10:21:42.989Z,22.80
2018-04-27T10:26:26.342Z,23.30
2018-04-27T10:31:10.494Z,23.70
2018-04-27T10:35:53.820Z,23.60
2018-04-27T10:40:37.171Z,22.70
2018-04-27T10:45:20.539Z,22.00
2018-04-27T10:50:04.597Z,22.10
2018-04-27T10:54:47.958Z,22.10
2018-04-27T10:59:31.315Z,21.70
2018-04-27T11:04:14.708Z,21.40
2018-04-27T11:08:58.092Z,21.40
2018-04-27T11:13:41.467Z,20.90
2018-04-27T11:18:24.867Z,20.20
2018-04-27T11:23:08.150Z,21.20
2018-04-27T11:27:52.282Z,20.90
2018-04-27T11:32:35.611Z,20.90
2018-04-27T11:37:28.343Z,20.80
2018-04-27T11:42:15.515Z,21.70
2018-04-27T11:46:58.844Z,21.60
2018-04-27T11:51:42.268Z,22.30
2018-04-27T11:56:25.663Z,21.10
2018-04-27T12:01:09.067Z,20.60
2018-04-27T12:05:52.543Z,21.30
2018-04-27T12:10:37.423Z,21.20
2018-04-27T12:15:20.788Z,21.20
2018-04-27T12:20:04.165Z,20.90
2018-04-27T12:24:47.546Z,20.80
2018-04-27T12:29:31.091Z,19.80
2018-04-27T12:34:15.300Z,20.00
2018-04-27T12:38:58.711Z,20.40
2018-04-27T12:43:42.070Z,21.10
2018-04-27T12:48:26.199Z,21.90
2018-04-27T12:53:09.646Z,21.80
2018-04-27T12:57:53.052Z,21.70
2018-04-27T13:02:39.659Z,21.40
2018-04-27T13:07:23.043Z,21.20
2018-04-27T13:12:07.233Z,21.70
2018-04-27T13:16:51.411Z,21.40
2018-04-27T13:21:34.770Z,21.40
2018-04-27T13:26:18.111Z,22.10
2018-04-27T13:31:01.495Z,22.30
2018-04-27T13:35:44.829Z,21.40
2018-04-27T13:40:28.205Z,22.20
2018-04-27T13:45:12.298Z,21.60
2018-04-27T13:49:55.679Z,21.60
2018-04-27T13:54:45.323Z,20.50
2018-04-27T13:59:29.487Z,20.00
2018-04-27T14:04:12.840Z,20.00
2018-04-27T14:08:56.327Z,20.80
2018-04-27T14:13:40.419Z,20.70
2018-04-27T14:18:23.781Z,20.70
2018-04-27T14:23:07.151Z,20.80
2018-04-27T14:27:50.556Z,20.80
2018-04-27T14:32:33.881Z,21.70
2018-04-27T14:37:17.388Z,21.60
2018-04-27T14:46:39.507Z,22.30
2018-04-27T14:51:23.195Z,22.20
2018-04-27T14:56:07.117Z,22.20
2018-04-27T15:00:51.363Z,21.80
2018-04-27T15:05:34.693Z,21.80
2018-04-27T15:10:18.032Z,22.20
2018-04-27T15:15:01.931Z,22.30
2018-04-27T15:19:46.057Z,21.50
2018-04-27T15:24:29.439Z,21.50
2018-04-27T15:29:12.726Z,21.70
2018-04-27T15:33:56.076Z,22.30
2018-04-27T15:38:39.427Z,22.50
2018-04-27T15:43:22.779Z,22.60
2018-04-27T15:48:07.846Z,22.40
2018-04-27T15:52:51.291Z,22.30
2018-04-27T15:57:34.598Z,21.70
2018-04-27T16:02:17.975Z,21.40
2018-04-27T16:07:01.434Z,20.80
2018-04-27T16:11:48.582Z,19.90
2018-04-27T16:16:32.202Z,19.40
2018-04-27T16:21:15.674Z,20.40
2018-04-27T16:25:58.992Z,21.50
2018-04-27T16:30:44.729Z,21.20
2018-04-27T16:35:28.226Z,20.20
2018-04-27T16:40:11.767Z,19.20
2018-04-27T16:44:55.923Z,18.50
2018-04-27T16:49:39.203Z,18.50
2018-04-27T16:54:22.776Z,18.10
2018-04-27T16:59:06.383Z,17.80
2018-04-27T17:03:49.794Z,17.50
2018-04-27T17:08:33.114Z,17.50
2018-04-27T17:13:16.560Z,18.20
2018-04-27T17:17:59.959Z,19.20
2018-04-27T17:22:45.995Z,19.40
2018-04-27T17:27:29.423Z,19.20
2018-04-27T17:32:12.775Z,18.80
2018-04-27T17:36:56.331Z,18.10
2018-04-27T17:41:39.660Z,17.50
2018-04-27T17:46:23.155Z,16.90
2018-04-27T17:51:06.569Z,16.30
2018-04-27T17:55:50.278Z,15.80
2018-04-27T18:00:34.597Z,14.90
2018-04-27T18:05:18.089Z,14.90
2018-04-27T18:10:01.489Z,14.50
2018-04-27T18:14:44.896Z,14.20
2018-04-27T18:19:29.546Z,14.00
2018-04-27T18:24:13.008Z,13.80
2018-04-27T18:28:56.745Z,13.50
2018-04-27T18:33:40.958Z,13.10
2018-04-27T18:38:24.422Z,13.10
2018-04-27T18:43:08.785Z,12.70
2018-04-27T18:47:53.224Z,12.50
2018-04-27T18:52:43.453Z,12.40
2018-04-27T18:57:34.734Z,12.20
2018-04-27T19:02:18.177Z,12.20
2018-04-27T19:07:01.780Z,12.20
2018-04-27T19:11:45.302Z,12.10
2018-04-27T19:16:35.585Z,11.90
2018-04-27T19:21:22.363Z,11.90
2018-04-27T19:26:09.712Z,11.90
2018-04-27T19:30:56.778Z,11.60
2018-04-27T19:35:41.232Z,11.50
2018-04-27T19:40:25.703Z,11.30
2018-04-27T19:45:17.171Z,11.30
2018-04-27T19:50:01.979Z,11.20
2018-04-27T19:54:45.915Z,11.10
2018-04-27T19:59:29.349Z,10.90
2018-04-27T20:04:12.822Z,10.80
2018-04-27T20:08:56.443Z,10.70
2018-04-27T20:13:57.634Z,10.60
2018-04-27T20:18:42.184Z,10.50
2018-04-27T20:23:26.596Z,10.60
2018-04-27T20:28:11.079Z,10.50
2018-04-27T20:32:54.652Z,10.70
2018-04-27T20:37:38.648Z,10.70
2018-04-27T20:42:22.780Z,10.60
2018-04-27T20:47:14.765Z,10.50
2018-04-27T20:52:05.116Z,10.30
2018-04-27T20:56:49.840Z,10.10
2018-04-27T21:01:49.867Z,10.10
2018-04-27T21:06:35.878Z,9.70
2018-04-27T21:11:19.275Z,9.60
2018-04-27T21:16:02.707Z,9.60
2018-04-27T21:20:46.828Z,9.30
2018-04-27T21:25:40.833Z,9.40
2018-04-27T21:30:24.230Z,9.40
2018-04-27T21:35:07.627Z,9.50
2018-04-27T21:39:51.751Z,9.60
2018-04-27T21:44:38.680Z,9.60
2018-04-27T21:49:23.950Z,9.50
2018-04-27T21:54:19.807Z,9.50
2018-04-27T21:59:03.481Z,9.50
2018-04-27T22:03:50.499Z,9.60
2018-04-27T22:08:41.925Z,9.50
2018-04-27T22:13:26.199Z,9.20
2018-04-27T22:18:10.378Z,9.20
2018-04-27T22:22:53.792Z,9.10
2018-04-27T22:27:37.309Z,9.20
2018-04-27T22:32:22.713Z,9.40
2018-04-27T22:37:06.399Z,9.40
2018-04-27T22:41:56.053Z,9.40
2018-04-27T22:46:41.136Z,9.30
2018-04-27T22:51:27.061Z,9.30
2018-04-27T22:56:15.015Z,9.20
2018-04-27T23:01:03.848Z,9.00
2018-04-27T23:05:48.126Z,8.90
2018-04-27T23:10:46.451Z,8.80
2018-04-27T23:15:37.565Z,8.70
2018-04-27T23:20:22.818Z,8.70
2018-04-27T23:25:07.741Z,8.60
2018-04-27T23:29:51.464Z,8.60
2018-04-27T23:34:34.970Z,8.70
2018-04-27T23:39:18.383Z,8.70
2018-04-27T23:44:01.718Z,8.70
2018-04-27T23:48:45.896Z,8.70
2018-04-27T23:53:29.937Z,8.70
2018-04-27T23:58:18.137Z,8.70
